createdAt,value
2017-11-10T00:00:27.866Z,10.80
2017-11-10T00:02:54.050Z,10.90
2017-11-10T00:05:20.238Z,10.90
2017-11-10T00:07:46.425Z,10.80
2017-11-10T00:10:12.611Z,10.80
2017-11-10T00:12:38.789Z,10.70
2017-11-10T00:15:04.954Z,10.70
2017-11-10T00:17:31.110Z,10.70
2017-11-10T00:19:58.148Z,10.70
2017-11-10T00:22:24.323Z,10.60
2017-11-10T00:24:51.244Z,10.60
2017-11-10T00:27:18.297Z,10.60
2017-11-10T00:29:44.462Z,10.70
2017-11-10T00:32:11.373Z,10.60
2017-11-10T00:34:37.559Z,10.60
2017-11-10T00:37:05.365Z,10.70
2017-11-10T00:39:31.545Z,10.70
2017-11-10T00:41:59.365Z,10.80
2017-11-10T00:44:25.545Z,10.80
2017-11-10T00:46:52.463Z,10.80
2017-11-10T00:49:19.502Z,10.80
2017-11-10T00:51:45.677Z,10.80
2017-11-10T00:54:12.590Z,10.90
2017-11-10T00:56:38.762Z,10.90
2017-11-10T00:59:04.929Z,10.90
2017-11-10T01:01:31.105Z,10.90
2017-11-10T01:03:57.291Z,10.90
2017-11-10T01:06:23.468Z,10.90
2017-11-10T01:08:49.649Z,10.90
2017-11-10T01:11:16.641Z,10.80
2017-11-10T01:13:48.761Z,10.70
2017-11-10T01:16:14.944Z,10.70
2017-11-10T01:18:41.119Z,10.70
2017-11-10T01:21:08.022Z,10.80
2017-11-10T01:23:34.185Z,10.80
2017-11-10T01:26:01.209Z,10.80
2017-11-10T01:28:27.411Z,10.70
2017-11-10T01:30:53.593Z,10.70
2017-11-10T01:33:20.626Z,10.70
2017-11-10T01:35:47.607Z,10.70
2017-11-10T01:38:14.038Z,10.70
2017-11-10T01:40:40.214Z,10.80
2017-11-10T01:43:07.132Z,10.70
2017-11-10T01:45:33.305Z,10.70
2017-11-10T01:47:59.500Z,10.70
2017-11-10T01:50:25.681Z,10.80
2017-11-10T01:52:51.864Z,10.80
2017-11-10T01:55:18.889Z,10.80
2017-11-10T01:57:45.118Z,10.60
2017-11-10T02:00:11.297Z,10.80
2017-11-10T02:02:38.410Z,10.80
2017-11-10T02:05:04.594Z,10.70
2017-11-10T02:07:31.529Z,10.70
2017-11-10T02:09:58.469Z,10.60
2017-11-10T02:12:24.657Z,10.60
2017-11-10T02:14:50.840Z,10.60
2017-11-10T02:17:17.035Z,10.60
2017-11-10T02:19:43.248Z,10.60
2017-11-10T02:22:09.430Z,10.60
2017-11-10T02:24:36.478Z,10.70
2017-11-10T02:27:02.663Z,10.70
2017-11-10T02:29:28.836Z,10.60
2017-11-10T02:31:55.021Z,10.70
2017-11-10T02:34:21.937Z,10.70
2017-11-10T02:36:48.137Z,10.70
2017-11-10T02:39:15.305Z,10.70
2017-11-10T02:41:46.490Z,10.70
2017-11-10T02:44:13.412Z,10.80
2017-11-10T02:46:39.619Z,10.80
2017-11-10T02:49:05.832Z,10.80
2017-11-10T02:51:32.736Z,10.70
2017-11-10T02:53:58.952Z,10.70
2017-11-10T02:56:25.119Z,10.70
2017-11-10T02:58:51.315Z,10.70
2017-11-10T03:01:18.376Z,10.70
2017-11-10T03:03:44.622Z,10.70
2017-11-10T03:06:11.585Z,10.60
2017-11-10T03:08:37.781Z,10.60
2017-11-10T03:11:03.943Z,10.60
2017-11-10T03:13:30.116Z,10.60
2017-11-10T03:15:57.869Z,10.60
2017-11-10T03:18:25.515Z,10.70
2017-11-10T03:20:51.692Z,10.70
2017-11-10T03:23:18.620Z,10.70
2017-11-10T03:25:45.542Z,10.70
2017-11-10T03:28:11.723Z,10.70
2017-11-10T03:30:38.640Z,10.70
2017-11-10T03:33:04.821Z,10.60
2017-11-10T03:35:31.004Z,10.60
2017-11-10T03:37:57.255Z,10.60
2017-11-10T03:40:24.445Z,10.60
2017-11-10T03:42:50.621Z,10.70
2017-11-10T03:45:16.806Z,10.60
2017-11-10T03:47:42.998Z,10.60
2017-11-10T03:50:09.178Z,10.60
2017-11-10T03:52:35.365Z,10.70
2017-11-10T03:55:02.339Z,10.70
2017-11-10T03:57:29.261Z,10.70
2017-11-10T03:59:57.005Z,10.70
2017-11-10T04:02:23.190Z,10.70
2017-11-10T04:04:50.114Z,10.80
2017-11-10T04:07:16.282Z,10.80
2017-11-10T04:09:43.189Z,10.70
2017-11-10T04:12:09.369Z,10.70
2017-11-10T04:14:36.461Z,10.70
2017-11-10T04:17:02.630Z,10.70
2017-11-10T04:19:28.806Z,10.60
2017-11-10T04:21:55.895Z,10.60
2017-11-10T04:24:22.049Z,10.60
2017-11-10T04:26:48.218Z,10.60
2017-11-10T04:29:14.405Z,10.50
2017-11-10T04:31:40.566Z,10.50
2017-11-10T04:34:07.481Z,10.60
2017-11-10T04:36:34.534Z,10.50
2017-11-10T04:39:00.706Z,10.50
2017-11-10T04:41:27.771Z,10.50
2017-11-10T04:43:55.582Z,10.50
2017-11-10T04:46:21.738Z,10.50
2017-11-10T04:48:47.947Z,10.50
2017-11-10T04:51:14.127Z,10.70
2017-11-10T04:53:41.034Z,10.40
2017-11-10T04:56:07.274Z,10.40
2017-11-10T04:58:33.479Z,10.40
2017-11-10T05:00:59.642Z,10.30
2017-11-10T05:03:25.810Z,10.30
2017-11-10T05:05:52.726Z,10.20
2017-11-10T05:08:18.890Z,10.20
2017-11-10T05:10:45.054Z,10.20
2017-11-10T05:13:11.418Z,10.20
2017-11-10T05:15:37.610Z,10.20
2017-11-10T05:18:04.513Z,10.20
2017-11-10T05:20:30.729Z,10.20
2017-11-10T05:22:56.923Z,10.30
2017-11-10T05:25:23.834Z,10.30
2017-11-10T05:27:50.131Z,10.30
2017-11-10T05:30:16.311Z,10.50
2017-11-10T05:32:42.502Z,10.30
2017-11-10T05:35:10.405Z,10.30
2017-11-10T05:37:36.587Z,10.40
2017-11-10T05:40:03.486Z,10.40
2017-11-10T05:42:29.762Z,10.30
2017-11-10T05:44:56.673Z,10.40
2017-11-10T05:47:22.846Z,10.40
2017-11-10T05:49:49.838Z,10.30
2017-11-10T05:52:16.033Z,10.40
2017-11-10T05:54:42.970Z,10.30
2017-11-10T05:57:09.354Z,10.30
2017-11-10T05:59:35.624Z,10.30
2017-11-10T06:02:01.909Z,10.30
2017-11-10T06:04:28.112Z,10.30
2017-11-10T06:06:55.038Z,10.30
2017-11-10T06:09:21.229Z,10.30
2017-11-10T06:11:47.461Z,10.30
2017-11-10T06:14:13.649Z,10.20
2017-11-10T06:16:39.846Z,9.80
2017-11-10T06:19:06.037Z,10.30
2017-11-10T06:21:32.186Z,10.20
2017-11-10T06:23:58.384Z,10.30
2017-11-10T06:26:24.554Z,10.30
2017-11-10T06:28:51.485Z,10.30
2017-11-10T06:31:17.696Z,10.30
2017-11-10T06:33:44.652Z,10.40
2017-11-10T06:36:10.857Z,10.30
2017-11-10T06:38:37.043Z,10.30
2017-11-10T06:41:03.974Z,10.30
2017-11-10T06:43:30.242Z,10.30
2017-11-10T06:45:56.414Z,10.40
2017-11-10T06:48:22.644Z,10.40
2017-11-10T06:50:48.825Z,10.40
2017-11-10T06:53:15.746Z,10.40
2017-11-10T06:55:41.930Z,10.30
2017-11-10T06:58:08.109Z,10.30
2017-11-10T07:00:34.282Z,10.30
2017-11-10T07:03:01.231Z,10.40
2017-11-10T07:05:28.155Z,10.40
2017-11-10T07:07:54.414Z,10.30
2017-11-10T07:10:21.354Z,10.30
2017-11-10T07:12:48.306Z,10.30
2017-11-10T07:15:14.518Z,10.30
2017-11-10T07:17:40.748Z,10.30
2017-11-10T07:20:07.740Z,10.30
2017-11-10T07:22:34.645Z,10.40
2017-11-10T07:25:00.850Z,10.40
2017-11-10T07:27:27.022Z,10.40
2017-11-10T07:29:53.207Z,10.40
2017-11-10T07:32:19.400Z,10.50
2017-11-10T07:34:45.590Z,10.50
2017-11-10T07:37:11.752Z,10.40
2017-11-10T07:39:37.951Z,10.40
2017-11-10T07:42:04.154Z,10.50
2017-11-10T07:44:31.231Z,10.40
2017-11-10T07:46:57.412Z,10.40
2017-11-10T07:49:23.590Z,10.40
2017-11-10T07:51:49.781Z,10.40
2017-11-10T07:54:15.957Z,10.40
2017-11-10T07:56:42.138Z,10.30
2017-11-10T07:59:08.330Z,10.40
2017-11-10T08:01:34.526Z,10.30
2017-11-10T08:04:00.804Z,10.40
2017-11-10T08:06:27.693Z,10.40
2017-11-10T08:08:53.894Z,10.40
2017-11-10T08:11:20.064Z,10.40
2017-11-10T08:13:46.273Z,10.50
2017-11-10T08:16:12.477Z,10.50
2017-11-10T08:18:39.376Z,10.50
2017-11-10T08:21:05.590Z,10.50
2017-11-10T08:23:31.839Z,10.60
2017-11-10T08:25:58.010Z,10.60
2017-11-10T08:28:24.931Z,10.60
2017-11-10T08:30:51.891Z,10.70
2017-11-10T08:33:18.099Z,10.70
2017-11-10T08:35:44.267Z,10.70
2017-11-10T08:38:10.441Z,10.70
2017-11-10T08:40:36.654Z,10.70
2017-11-10T08:43:03.581Z,10.60
2017-11-10T08:45:30.628Z,10.70
2017-11-10T08:47:56.778Z,10.60
2017-11-10T08:50:22.965Z,10.70
2017-11-10T08:52:49.206Z,10.60
2017-11-10T08:55:15.365Z,10.60
2017-11-10T08:57:41.550Z,10.60
2017-11-10T09:00:07.753Z,10.60
2017-11-10T09:02:34.664Z,10.60
2017-11-10T09:05:00.835Z,10.60
2017-11-10T09:07:27.767Z,10.50
2017-11-10T09:09:53.968Z,10.50
2017-11-10T09:12:20.135Z,10.50
2017-11-10T09:14:46.330Z,10.50
2017-11-10T09:17:12.535Z,10.10
2017-11-10T09:19:39.457Z,10.40
2017-11-10T09:22:07.162Z,10.30
2017-11-10T09:24:33.348Z,10.30
2017-11-10T09:27:00.551Z,10.30
2017-11-10T09:29:28.581Z,10.40
2017-11-10T09:31:54.765Z,10.40
2017-11-10T09:34:27.186Z,10.40
2017-11-10T09:36:56.289Z,10.50
2017-11-10T09:39:28.755Z,10.50
2017-11-10T09:44:58.197Z,10.50
2017-11-10T09:47:31.350Z,10.50
2017-11-10T09:50:03.705Z,10.50
2017-11-10T09:52:39.874Z,10.60
2017-11-10T09:55:12.262Z,10.60
2017-11-10T09:57:39.342Z,10.60
2017-11-10T10:00:11.839Z,10.60
2017-11-10T10:05:41.071Z,10.60
2017-11-10T10:08:10.167Z,10.60
2017-11-10T10:10:48.909Z,10.70
2017-11-10T10:13:30.051Z,10.70
2017-11-10T10:16:03.058Z,10.80
2017-11-10T10:18:35.567Z,10.80
2017-11-10T10:21:17.622Z,10.80
2017-11-10T10:23:43.857Z,10.80
2017-11-10T10:26:10.094Z,10.80
2017-11-10T10:28:37.032Z,10.90
2017-11-10T10:31:03.937Z,10.90
2017-11-10T10:33:30.114Z,10.90
2017-11-10T10:35:57.044Z,10.90
2017-11-10T10:38:23.207Z,10.90
2017-11-10T10:40:49.385Z,10.80
2017-11-10T10:43:15.578Z,10.80
2017-11-10T10:45:41.746Z,10.80
2017-11-10T10:48:07.993Z,10.80
2017-11-10T10:50:34.199Z,10.80
2017-11-10T10:53:00.393Z,10.90
2017-11-10T10:55:26.573Z,10.90
2017-11-10T10:57:52.775Z,10.90
2017-11-10T11:00:18.987Z,10.90
2017-11-10T11:02:45.905Z,11.00
2017-11-10T11:05:12.128Z,11.00
2017-11-10T11:07:38.295Z,11.00
2017-11-10T11:10:04.478Z,11.00
2017-11-10T11:12:30.677Z,11.00
2017-11-10T11:14:57.610Z,11.00
2017-11-10T11:17:23.778Z,11.00
2017-11-10T11:19:50.706Z,11.10
2017-11-10T11:22:17.651Z,11.10
2017-11-10T11:24:43.822Z,11.00
2017-11-10T11:27:10.039Z,11.00
2017-11-10T11:29:36.976Z,11.00
2017-11-10T11:32:04.318Z,11.00
2017-11-10T11:34:30.810Z,11.10
2017-11-10T11:36:57.030Z,11.00
2017-11-10T11:39:23.958Z,11.00
2017-11-10T11:41:50.921Z,11.00
2017-11-10T11:44:17.101Z,11.00
2017-11-10T11:46:43.319Z,11.00
2017-11-10T11:49:09.712Z,11.00
2017-11-10T11:51:35.866Z,11.00
2017-11-10T11:54:02.049Z,11.00
2017-11-10T11:56:28.229Z,11.00
2017-11-10T11:58:55.154Z,11.00
2017-11-10T12:01:22.855Z,11.00
2017-11-10T12:03:49.785Z,11.10
2017-11-10T12:06:15.999Z,11.00
2017-11-10T12:08:42.174Z,11.00
2017-11-10T12:11:09.127Z,11.00
2017-11-10T12:13:35.314Z,10.90
2017-11-10T12:16:01.541Z,11.00
2017-11-10T12:18:27.755Z,11.00
2017-11-10T12:20:53.954Z,11.00
2017-11-10T12:23:20.895Z,10.90
2017-11-10T12:25:47.868Z,10.80
2017-11-10T12:28:14.050Z,10.80
2017-11-10T12:30:40.229Z,10.80
2017-11-10T12:33:07.154Z,10.70
2017-11-10T12:35:33.338Z,10.70
2017-11-10T12:37:59.549Z,10.60
2017-11-10T12:40:26.502Z,10.60
2017-11-10T12:42:52.677Z,10.60
2017-11-10T12:45:18.916Z,10.60
2017-11-10T12:47:45.242Z,10.50
2017-11-10T12:50:11.662Z,10.50
2017-11-10T12:52:37.883Z,10.50
2017-11-10T12:55:04.815Z,10.50
2017-11-10T12:57:31.784Z,10.50
2017-11-10T12:59:57.979Z,10.40
2017-11-10T13:02:24.206Z,10.40
2017-11-10T13:04:50.434Z,10.40
2017-11-10T13:07:16.613Z,10.40
2017-11-10T13:09:43.561Z,10.30
2017-11-10T13:12:10.502Z,10.20
2017-11-10T13:14:36.638Z,10.20
2017-11-10T13:17:02.837Z,10.20
2017-11-10T13:19:29.053Z,10.20
2017-11-10T13:21:55.266Z,10.40
2017-11-10T13:24:21.466Z,10.10
2017-11-10T13:26:48.406Z,10.10
2017-11-10T13:29:14.562Z,10.00
2017-11-10T13:31:41.496Z,10.00
2017-11-10T13:34:07.683Z,10.00
2017-11-10T13:36:34.638Z,9.90
2017-11-10T13:39:00.838Z,9.90
2017-11-10T13:41:27.542Z,9.90
2017-11-10T13:43:53.741Z,9.80
2017-11-10T13:46:19.958Z,9.80
2017-11-10T13:48:46.123Z,9.80
2017-11-10T13:51:12.396Z,9.70
2017-11-10T13:53:38.614Z,9.80
2017-11-10T13:56:04.802Z,9.80
2017-11-10T13:58:30.977Z,9.70
2017-11-10T14:00:57.206Z,9.80
2017-11-10T14:03:23.390Z,9.80
2017-11-10T14:05:49.577Z,9.80
2017-11-10T14:08:15.805Z,9.80
2017-11-10T14:10:41.967Z,9.80
2017-11-10T14:13:08.895Z,9.80
2017-11-10T14:15:35.101Z,9.80
2017-11-10T14:18:01.291Z,9.70
2017-11-10T14:20:27.498Z,9.80
2017-11-10T14:22:53.707Z,9.70
2017-11-10T14:25:19.897Z,9.70
2017-11-10T14:27:46.102Z,9.70
2017-11-10T14:30:12.291Z,9.70
2017-11-10T14:32:38.475Z,9.60
2017-11-10T14:35:04.684Z,9.60
2017-11-10T14:37:30.874Z,9.60
2017-11-10T14:39:57.095Z,9.60
2017-11-10T14:42:23.312Z,9.60
2017-11-10T14:44:49.527Z,9.90
2017-11-10T14:47:15.737Z,9.60
2017-11-10T14:49:41.945Z,9.60
2017-11-10T14:52:08.333Z,9.70
2017-11-10T14:54:34.532Z,9.70
2017-11-10T14:57:00.725Z,9.70
2017-11-10T14:59:26.914Z,9.70
2017-11-10T15:01:53.082Z,9.70
2017-11-10T15:04:19.263Z,9.70
2017-11-10T15:06:45.444Z,9.70
2017-11-10T15:09:12.392Z,9.70
2017-11-10T15:11:38.559Z,9.70
2017-11-10T15:14:05.506Z,9.70
2017-11-10T15:16:32.427Z,9.80
2017-11-10T15:18:58.602Z,9.80
2017-11-10T15:21:25.525Z,9.70
2017-11-10T15:23:51.703Z,9.70
2017-11-10T15:26:18.650Z,9.80
2017-11-10T15:28:44.865Z,9.70
2017-11-10T15:31:11.810Z,9.70
2017-11-10T15:33:38.204Z,9.70
2017-11-10T15:36:05.882Z,9.70
2017-11-10T15:38:32.090Z,9.70
2017-11-10T15:40:58.279Z,9.70
2017-11-10T15:43:24.462Z,9.90
2017-11-10T15:45:50.659Z,9.70
2017-11-10T15:48:16.863Z,9.70
2017-11-10T15:50:43.072Z,9.60
2017-11-10T15:53:09.311Z,9.40
2017-11-10T15:55:35.498Z,9.70
2017-11-10T15:58:02.468Z,9.70
2017-11-10T16:00:28.669Z,9.60
2017-11-10T16:02:55.595Z,9.60
2017-11-10T16:05:21.778Z,9.60
2017-11-10T16:07:48.686Z,9.60
2017-11-10T16:10:14.889Z,9.60
2017-11-10T16:12:41.076Z,9.50
2017-11-10T16:15:07.986Z,9.50
2017-11-10T16:17:34.182Z,9.40
2017-11-10T16:20:00.347Z,9.40
2017-11-10T16:22:26.508Z,9.40
2017-11-10T16:24:52.698Z,9.30
2017-11-10T16:27:18.930Z,9.30
2017-11-10T16:29:45.109Z,9.30
2017-11-10T16:32:11.266Z,9.30
2017-11-10T16:34:38.239Z,9.30
2017-11-10T16:37:04.415Z,9.30
2017-11-10T16:39:30.579Z,9.30
2017-11-10T16:41:57.498Z,9.20
2017-11-10T16:44:23.674Z,9.30
2017-11-10T16:46:49.858Z,9.30
2017-11-10T16:49:16.061Z,9.30
2017-11-10T16:51:42.243Z,9.20
2017-11-10T16:54:09.229Z,9.10
2017-11-10T16:56:35.422Z,9.10
2017-11-10T16:59:01.598Z,9.10
2017-11-10T17:01:27.803Z,9.10
2017-11-10T17:03:54.005Z,9.10
2017-11-10T17:06:20.183Z,9.10
2017-11-10T17:08:47.102Z,9.10
2017-11-10T17:11:13.322Z,9.10
2017-11-10T17:13:39.518Z,9.10
2017-11-10T17:16:05.688Z,9.00
2017-11-10T17:18:31.935Z,9.00
2017-11-10T17:20:59.607Z,9.00
2017-11-10T17:23:25.777Z,9.00
2017-11-10T17:25:52.714Z,8.90
2017-11-10T17:28:18.907Z,8.90
2017-11-10T17:30:45.087Z,8.90
2017-11-10T17:33:11.281Z,8.80
2017-11-10T17:35:37.466Z,8.80
2017-11-10T17:38:03.654Z,8.70
2017-11-10T17:40:29.862Z,8.70
2017-11-10T17:42:56.042Z,8.60
2017-11-10T17:45:22.959Z,8.60
2017-11-10T17:47:49.177Z,8.60
2017-11-10T17:50:15.362Z,8.60
2017-11-10T17:52:41.532Z,8.60
2017-11-10T17:55:07.904Z,8.70
2017-11-10T17:57:34.112Z,8.70
2017-11-10T18:00:00.294Z,8.70
2017-11-10T18:02:26.515Z,8.80
2017-11-10T18:04:52.692Z,8.70
2017-11-10T18:07:18.870Z,8.80
2017-11-10T18:09:45.057Z,8.80
2017-11-10T18:12:11.261Z,8.70
2017-11-10T18:14:37.445Z,8.80
2017-11-10T18:17:03.675Z,8.80
2017-11-10T18:19:29.893Z,8.70
2017-11-10T18:21:56.054Z,8.70
2017-11-10T18:24:22.264Z,8.70
2017-11-10T18:26:48.446Z,8.70
2017-11-10T18:29:14.623Z,8.60
2017-11-10T18:31:41.930Z,8.70
2017-11-10T18:34:08.107Z,8.60
2017-11-10T18:36:35.027Z,8.60
2017-11-10T18:39:02.103Z,8.60
2017-11-10T18:41:28.244Z,8.60
2017-11-10T18:43:55.151Z,8.60
2017-11-10T18:46:22.191Z,8.50
2017-11-10T18:48:54.418Z,8.60
2017-11-10T18:51:21.326Z,8.50
2017-11-10T18:53:47.528Z,8.50
2017-11-10T18:56:13.794Z,8.50
2017-11-10T18:58:39.969Z,8.60
2017-11-10T19:01:06.145Z,8.60
2017-11-10T19:03:32.321Z,8.60
2017-11-10T19:05:59.238Z,8.60
2017-11-10T19:08:25.454Z,8.60
2017-11-10T19:10:51.630Z,8.60
2017-11-10T19:13:17.838Z,8.60
2017-11-10T19:15:44.030Z,8.60
2017-11-10T19:18:10.952Z,8.50
2017-11-10T19:20:37.113Z,8.50
2017-11-10T19:23:04.038Z,8.60
2017-11-10T19:25:30.198Z,8.50
2017-11-10T19:27:57.122Z,8.50
2017-11-10T19:30:23.339Z,8.50
2017-11-10T19:32:49.522Z,8.60
2017-11-10T19:35:15.719Z,8.60
2017-11-10T19:37:41.897Z,8.60
2017-11-10T19:40:08.087Z,8.70
2017-11-10T19:42:34.273Z,8.60
2017-11-10T19:45:00.466Z,8.60
2017-11-10T19:47:26.626Z,8.60
2017-11-10T19:49:52.797Z,8.60
2017-11-10T19:52:19.001Z,8.50
2017-11-10T19:54:45.168Z,8.50
2017-11-10T19:57:12.886Z,8.30
2017-11-10T19:59:39.841Z,8.30
2017-11-10T20:02:06.017Z,8.20
2017-11-10T20:04:32.210Z,8.30
2017-11-10T20:06:58.422Z,8.20
2017-11-10T20:09:25.356Z,8.20
2017-11-10T20:11:51.509Z,8.20
2017-11-10T20:14:18.428Z,8.30
2017-11-10T20:16:44.602Z,8.20
2017-11-10T20:19:11.506Z,8.40
2017-11-10T20:21:37.694Z,8.40
2017-11-10T20:24:03.904Z,8.50
2017-11-10T20:26:30.818Z,8.60
2017-11-10T20:28:56.985Z,8.60
2017-11-10T20:31:23.886Z,8.50
2017-11-10T20:33:50.057Z,8.50
2017-11-10T20:36:16.232Z,8.40
2017-11-10T20:38:42.409Z,8.40
2017-11-10T20:41:08.593Z,8.50
2017-11-10T20:43:34.777Z,8.40
2017-11-10T20:46:00.950Z,8.40
2017-11-10T20:48:27.151Z,8.40
2017-11-10T20:50:53.345Z,8.40
2017-11-10T20:53:19.524Z,8.40
2017-11-10T20:55:45.727Z,8.30
2017-11-10T20:58:11.978Z,8.40
2017-11-10T21:00:38.231Z,8.40
2017-11-10T21:03:04.390Z,8.40
2017-11-10T21:05:30.571Z,8.40
2017-11-10T21:07:56.757Z,8.40
2017-11-10T21:10:22.937Z,8.30
2017-11-10T21:12:49.118Z,8.20
2017-11-10T21:15:16.036Z,8.10
2017-11-10T21:17:42.238Z,8.10
2017-11-10T21:20:08.437Z,8.10
2017-11-10T21:22:35.347Z,8.10
2017-11-10T21:25:01.534Z,8.00
2017-11-10T21:27:27.723Z,8.10
2017-11-10T21:29:55.402Z,8.00
2017-11-10T21:32:21.579Z,8.00
2017-11-10T21:34:47.815Z,8.00
2017-11-10T21:37:13.980Z,7.90
2017-11-10T21:39:40.167Z,7.80
2017-11-10T21:42:06.345Z,7.80
2017-11-10T21:44:32.537Z,7.70
2017-11-10T21:46:58.704Z,7.70
2017-11-10T21:49:24.892Z,7.60
2017-11-10T21:51:51.066Z,7.60
2017-11-10T21:54:17.262Z,7.50
2017-11-10T21:56:43.479Z,7.50
2017-11-10T21:59:10.548Z,7.50
2017-11-10T22:01:37.482Z,7.60
2017-11-10T22:04:04.424Z,7.60
2017-11-10T22:06:31.334Z,7.70
2017-11-10T22:08:57.551Z,7.70
2017-11-10T22:11:23.778Z,7.80
2017-11-10T22:13:49.997Z,7.80
2017-11-10T22:16:16.886Z,7.70
2017-11-10T22:18:43.106Z,7.70
2017-11-10T22:21:09.283Z,7.70
2017-11-10T22:23:35.487Z,7.70
2017-11-10T22:26:01.704Z,7.70
2017-11-10T22:28:27.922Z,7.70
2017-11-10T22:30:54.121Z,7.70
2017-11-10T22:33:21.078Z,7.70
2017-11-10T22:35:48.028Z,7.80
2017-11-10T22:38:14.957Z,7.80
2017-11-10T22:40:41.208Z,7.80
2017-11-10T22:43:08.151Z,7.80
2017-11-10T22:45:34.351Z,7.80
2017-11-10T22:48:00.542Z,7.80
2017-11-10T22:50:26.720Z,7.80
2017-11-10T22:52:52.887Z,7.80
2017-11-10T22:55:19.094Z,7.70
2017-11-10T22:57:45.294Z,7.50
2017-11-10T23:00:11.638Z,7.50
2017-11-10T23:02:37.841Z,7.50
2017-11-10T23:05:04.083Z,7.50
2017-11-10T23:07:31.022Z,7.50
2017-11-10T23:09:57.996Z,7.50
2017-11-10T23:12:24.922Z,7.50
2017-11-10T23:14:51.114Z,7.50
2017-11-10T23:17:17.318Z,7.50
2017-11-10T23:19:43.552Z,7.60
2017-11-10T23:22:09.741Z,7.60
2017-11-10T23:24:35.932Z,7.70
2017-11-10T23:27:02.131Z,7.70
2017-11-10T23:29:29.071Z,7.70
2017-11-10T23:31:55.251Z,7.70
2017-11-10T23:34:21.431Z,7.70
2017-11-10T23:36:48.375Z,7.80
2017-11-10T23:39:14.585Z,7.80
2017-11-10T23:41:40.750Z,7.80
2017-11-10T23:44:07.684Z,7.70
2017-11-10T23:46:33.868Z,7.70
2017-11-10T23:49:00.055Z,7.70
2017-11-10T23:51:26.243Z,7.70
2017-11-10T23:53:52.434Z,7.90
2017-11-10T23:56:18.601Z,7.70
2017-11-10T23:58:44.777Z,7.80
